sensor_id;sensor_type;location;lat;lon;timestamp;P1;durP1;ratioP1;P2;durP2;ratioP2
42514;SDS011;28144;49.920;18.730;2022-07-05T00:02:16;14.10;;;8.25;;
42514;SDS011;28144;49.920;18.730;2022-07-05T00:04:42;10.23;;;6.07;;
42514;SDS011;28144;49.920;18.730;2022-07-05T00:07:08;15.85;;;7.13;;
42514;SDS011;28144;49.920;18.730;2022-07-05T00:09:43;11.03;;;6.67;;
42514;SDS011;28144;49.920;18.730;2022-07-05T00:12:12;11.75;;;6.90;;
42514;SDS011;28144;49.920;18.730;2022-07-05T00:14:39;27.25;;;13.38;;
42514;SDS011;28144;49.920;18.730;2022-07-05T00:17:05;8.18;;;5.18;;
42514;SDS011;28144;49.920;18.730;2022-07-05T00:19:31;7.78;;;5.00;;
42514;SDS011;28144;49.920;18.730;2022-07-05T00:21:57;11.85;;;4.38;;
42514;SDS011;28144;49.920;18.730;2022-07-05T00:24:23;15.68;;;4.50;;
42514;SDS011;28144;49.920;18.730;2022-07-05T00:26:50;10.85;;;4.63;;
42514;SDS011;28144;49.920;18.730;2022-07-05T00:29:15;10.15;;;4.60;;
42514;SDS011;28144;49.920;18.730;2022-07-05T00:31:41;8.27;;;4.78;;
42514;SDS011;28144;49.920;18.730;2022-07-05T00:34:06;9.05;;;4.40;;
42514;SDS011;28144;49.920;18.730;2022-07-05T00:36:32;7.03;;;4.22;;
42514;SDS011;28144;49.920;18.730;2022-07-05T00:38:58;5.32;;;3.92;;
42514;SDS011;28144;49.920;18.730;2022-07-05T00:41:24;10.77;;;4.95;;
42514;SDS011;28144;49.920;18.730;2022-07-05T00:43:53;5.82;;;4.50;;
42514;SDS011;28144;49.920;18.730;2022-07-05T00:46:20;7.82;;;4.60;;
42514;SDS011;28144;49.920;18.730;2022-07-05T00:48:46;7.43;;;4.25;;
42514;SDS011;28144;49.920;18.730;2022-07-05T00:51:11;11.02;;;4.43;;
42514;SDS011;28144;49.920;18.730;2022-07-05T00:53:37;5.85;;;4.32;;
42514;SDS011;28144;49.920;18.730;2022-07-05T00:56:03;12.20;;;4.53;;
42514;SDS011;28144;49.920;18.730;2022-07-05T00:58:30;15.68;;;4.60;;
42514;SDS011;28144;49.920;18.730;2022-07-05T01:00:58;6.43;;;3.60;;
42514;SDS011;28144;49.920;18.730;2022-07-05T01:03:24;11.15;;;4.20;;
42514;SDS011;28144;49.920;18.730;2022-07-05T01:05:52;8.25;;;4.53;;
42514;SDS011;28144;49.920;18.730;2022-07-05T01:08:19;14.25;;;5.80;;
42514;SDS011;28144;49.920;18.730;2022-07-05T01:10:45;9.73;;;4.75;;
42514;SDS011;28144;49.920;18.730;2022-07-05T01:13:11;18.77;;;4.78;;
42514;SDS011;28144;49.920;18.730;2022-07-05T01:15:36;9.63;;;4.50;;
42514;SDS011;28144;49.920;18.730;2022-07-05T01:18:04;13.85;;;4.65;;
42514;SDS011;28144;49.920;18.730;2022-07-05T01:20:30;9.23;;;4.13;;
42514;SDS011;28144;49.920;18.730;2022-07-05T01:22:57;10.05;;;4.63;;
42514;SDS011;28144;49.920;18.730;2022-07-05T01:25:25;12.75;;;4.93;;
42514;SDS011;28144;49.920;18.730;2022-07-05T01:27:52;12.63;;;5.15;;
42514;SDS011;28144;49.920;18.730;2022-07-05T01:30:18;11.98;;;5.40;;
42514;SDS011;28144;49.920;18.730;2022-07-05T01:32:44;13.45;;;5.50;;
42514;SDS011;28144;49.920;18.730;2022-07-05T01:35:10;14.20;;;5.10;;
42514;SDS011;28144;49.920;18.730;2022-07-05T01:37:37;18.10;;;8.02;;
42514;SDS011;28144;49.920;18.730;2022-07-05T01:40:03;8.98;;;5.25;;
42514;SDS011;28144;49.920;18.730;2022-07-05T01:47:20;7.97;;;4.60;;
42514;SDS011;28144;49.920;18.730;2022-07-05T01:49:46;10.17;;;4.93;;
42514;SDS011;28144;49.920;18.730;2022-07-05T01:52:14;10.02;;;5.20;;
42514;SDS011;28144;49.920;18.730;2022-07-05T01:54:41;9.32;;;4.90;;
42514;SDS011;28144;49.920;18.730;2022-07-05T01:57:08;11.68;;;5.00;;
42514;SDS011;28144;49.920;18.730;2022-07-05T01:59:36;9.23;;;4.70;;
42514;SDS011;28144;49.920;18.730;2022-07-05T02:02:03;14.77;;;5.18;;
42514;SDS011;28144;49.920;18.730;2022-07-05T02:04:29;19.83;;;5.25;;
42514;SDS011;28144;49.920;18.730;2022-07-05T02:06:56;9.93;;;5.43;;
42514;SDS011;28144;49.920;18.730;2022-07-05T02:09:22;16.92;;;5.63;;
42514;SDS011;28144;49.920;18.730;2022-07-05T02:11:48;17.27;;;6.32;;
42514;SDS011;28144;49.920;18.730;2022-07-05T02:14:14;23.75;;;6.65;;
42514;SDS011;28144;49.920;18.730;2022-07-05T02:16:39;18.70;;;6.18;;
42514;SDS011;28144;49.920;18.730;2022-07-05T02:19:05;13.98;;;7.05;;
42514;SDS011;28144;49.920;18.730;2022-07-05T02:21:31;20.90;;;6.88;;
42514;SDS011;28144;49.920;18.730;2022-07-05T02:23:57;16.03;;;7.30;;
42514;SDS011;28144;49.920;18.730;2022-07-05T02:26:22;14.70;;;6.23;;
42514;SDS011;28144;49.920;18.730;2022-07-05T02:28:48;14.77;;;6.75;;
42514;SDS011;28144;49.920;18.730;2022-07-05T02:31:14;17.70;;;6.60;;
42514;SDS011;28144;49.920;18.730;2022-07-05T02:33:41;16.02;;;6.53;;
42514;SDS011;28144;49.920;18.730;2022-07-05T02:36:08;19.33;;;7.20;;
42514;SDS011;28144;49.920;18.730;2022-07-05T02:38:36;15.57;;;6.82;;
42514;SDS011;28144;49.920;18.730;2022-07-05T02:41:06;11.85;;;7.05;;
42514;SDS011;28144;49.920;18.730;2022-07-05T02:43:33;18.92;;;7.70;;
42514;SDS011;28144;49.920;18.730;2022-07-05T02:45:59;27.77;;;9.55;;
42514;SDS011;28144;49.920;18.730;2022-07-05T02:53:16;14.27;;;7.00;;
42514;SDS011;28144;49.920;18.730;2022-07-05T02:55:42;14.65;;;6.88;;
42514;SDS011;28144;49.920;18.730;2022-07-05T02:58:07;18.73;;;7.45;;
42514;SDS011;28144;49.920;18.730;2022-07-05T03:00:33;15.25;;;7.47;;
42514;SDS011;28144;49.920;18.730;2022-07-05T03:02:59;16.65;;;7.30;;
42514;SDS011;28144;49.920;18.730;2022-07-05T03:05:24;15.43;;;7.22;;
42514;SDS011;28144;49.920;18.730;2022-07-05T03:07:50;9.63;;;5.83;;
42514;SDS011;28144;49.920;18.730;2022-07-05T03:10:16;14.93;;;7.15;;
42514;SDS011;28144;49.920;18.730;2022-07-05T03:12:42;18.02;;;6.75;;
42514;SDS011;28144;49.920;18.730;2022-07-05T03:15:07;32.47;;;7.55;;
42514;SDS011;28144;49.920;18.730;2022-07-05T03:17:33;14.98;;;6.65;;
42514;SDS011;28144;49.920;18.730;2022-07-05T03:19:59;16.33;;;7.10;;
42514;SDS011;28144;49.920;18.730;2022-07-05T03:22:25;18.48;;;6.90;;
42514;SDS011;28144;49.920;18.730;2022-07-05T03:24:50;19.13;;;8.35;;
42514;SDS011;28144;49.920;18.730;2022-07-05T03:27:16;12.82;;;7.22;;
42514;SDS011;28144;49.920;18.730;2022-07-05T03:29:42;10.43;;;6.32;;
42514;SDS011;28144;49.920;18.730;2022-07-05T03:32:07;21.17;;;6.63;;
42514;SDS011;28144;49.920;18.730;2022-07-05T03:34:33;15.25;;;7.40;;
42514;SDS011;28144;49.920;18.730;2022-07-05T03:36:59;16.73;;;7.38;;
42514;SDS011;28144;49.920;18.730;2022-07-05T03:39:25;16.73;;;7.80;;
42514;SDS011;28144;49.920;18.730;2022-07-05T03:41:50;13.85;;;7.65;;
42514;SDS011;28144;49.920;18.730;2022-07-05T03:44:16;13.57;;;6.70;;
42514;SDS011;28144;49.920;18.730;2022-07-05T03:46:42;16.20;;;6.38;;
42514;SDS011;28144;49.920;18.730;2022-07-05T03:49:07;14.88;;;6.95;;
42514;SDS011;28144;49.920;18.730;2022-07-05T03:51:33;15.68;;;6.45;;
42514;SDS011;28144;49.920;18.730;2022-07-05T03:53:59;11.53;;;6.60;;
42514;SDS011;28144;49.920;18.730;2022-07-05T03:56:25;14.75;;;7.10;;
42514;SDS011;28144;49.920;18.730;2022-07-05T03:58:50;12.17;;;6.83;;
42514;SDS011;28144;49.920;18.730;2022-07-05T04:01:16;12.50;;;6.20;;
42514;SDS011;28144;49.920;18.730;2022-07-05T04:03:42;13.23;;;6.35;;
42514;SDS011;28144;49.920;18.730;2022-07-05T04:06:08;16.20;;;5.90;;
42514;SDS011;28144;49.920;18.730;2022-07-05T04:08:34;14.63;;;6.65;;
42514;SDS011;28144;49.920;18.730;2022-07-05T04:11:00;15.65;;;6.53;;
42514;SDS011;28144;49.920;18.730;2022-07-05T04:13:26;13.02;;;6.25;;
42514;SDS011;28144;49.920;18.730;2022-07-05T04:15:51;11.73;;;6.40;;
42514;SDS011;28144;49.920;18.730;2022-07-05T04:18:18;15.00;;;6.88;;
42514;SDS011;28144;49.920;18.730;2022-07-05T04:20:44;14.50;;;6.63;;
42514;SDS011;28144;49.920;18.730;2022-07-05T04:23:10;15.85;;;6.68;;
42514;SDS011;28144;49.920;18.730;2022-07-05T04:25:35;12.35;;;6.22;;
42514;SDS011;28144;49.920;18.730;2022-07-05T04:28:01;11.23;;;7.30;;
42514;SDS011;28144;49.920;18.730;2022-07-05T04:30:28;9.88;;;6.53;;
42514;SDS011;28144;49.920;18.730;2022-07-05T04:32:53;12.20;;;6.70;;
42514;SDS011;28144;49.920;18.730;2022-07-05T04:35:20;9.75;;;6.43;;
42514;SDS011;28144;49.920;18.730;2022-07-05T04:37:45;12.82;;;6.60;;
42514;SDS011;28144;49.920;18.730;2022-07-05T04:40:12;16.83;;;6.47;;
42514;SDS011;28144;49.920;18.730;2022-07-05T04:42:38;8.95;;;5.70;;
42514;SDS011;28144;49.920;18.730;2022-07-05T04:45:04;14.73;;;6.35;;
42514;SDS011;28144;49.920;18.730;2022-07-05T04:47:31;13.02;;;8.18;;
42514;SDS011;28144;49.920;18.730;2022-07-05T04:49:56;16.48;;;9.63;;
42514;SDS011;28144;49.920;18.730;2022-07-05T04:52:23;12.75;;;6.70;;
42514;SDS011;28144;49.920;18.730;2022-07-05T04:54:49;10.93;;;7.05;;
42514;SDS011;28144;49.920;18.730;2022-07-05T04:57:15;13.40;;;6.20;;
42514;SDS011;28144;49.920;18.730;2022-07-05T04:59:40;11.88;;;6.03;;
42514;SDS011;28144;49.920;18.730;2022-07-05T05:02:06;14.75;;;6.60;;
42514;SDS011;28144;49.920;18.730;2022-07-05T05:04:32;12.50;;;6.65;;
42514;SDS011;28144;49.920;18.730;2022-07-05T05:06:57;10.02;;;6.53;;
42514;SDS011;28144;49.920;18.730;2022-07-05T05:09:24;15.32;;;6.90;;
42514;SDS011;28144;49.920;18.730;2022-07-05T05:11:49;11.07;;;6.63;;
42514;SDS011;28144;49.920;18.730;2022-07-05T05:14:15;14.55;;;6.95;;
42514;SDS011;28144;49.920;18.730;2022-07-05T05:16:41;12.50;;;6.10;;
42514;SDS011;28144;49.920;18.730;2022-07-05T05:19:07;15.77;;;5.88;;
42514;SDS011;28144;49.920;18.730;2022-07-05T05:21:33;18.55;;;7.57;;
42514;SDS011;28144;49.920;18.730;2022-07-05T05:23:58;15.07;;;6.57;;
42514;SDS011;28144;49.920;18.730;2022-07-05T05:26:24;14.57;;;6.60;;
42514;SDS011;28144;49.920;18.730;2022-07-05T05:28:50;13.10;;;6.65;;
42514;SDS011;28144;49.920;18.730;2022-07-05T05:31:16;13.02;;;6.47;;
42514;SDS011;28144;49.920;18.730;2022-07-05T05:36:08;13.20;;;6.47;;
42514;SDS011;28144;49.920;18.730;2022-07-05T05:38:34;9.70;;;6.35;;
42514;SDS011;28144;49.920;18.730;2022-07-05T05:41:00;12.93;;;7.75;;
42514;SDS011;28144;49.920;18.730;2022-07-05T05:43:26;20.63;;;9.07;;
42514;SDS011;28144;49.920;18.730;2022-07-05T05:45:51;12.77;;;7.05;;
42514;SDS011;28144;49.920;18.730;2022-07-05T05:48:17;20.13;;;7.60;;
42514;SDS011;28144;49.920;18.730;2022-07-05T05:50:43;15.73;;;7.60;;
42514;SDS011;28144;49.920;18.730;2022-07-05T05:53:09;11.50;;;7.15;;
42514;SDS011;28144;49.920;18.730;2022-07-05T05:55:35;13.48;;;6.70;;
42514;SDS011;28144;49.920;18.730;2022-07-05T05:58:17;17.88;;;7.32;;
42514;SDS011;28144;49.920;18.730;2022-07-05T06:00:47;13.02;;;7.43;;
42514;SDS011;28144;49.920;18.730;2022-07-05T06:03:14;10.90;;;6.97;;
42514;SDS011;28144;49.920;18.730;2022-07-05T06:05:40;12.18;;;7.65;;
42514;SDS011;28144;49.920;18.730;2022-07-05T06:08:06;13.40;;;6.93;;
42514;SDS011;28144;49.920;18.730;2022-07-05T06:10:33;12.77;;;7.20;;
42514;SDS011;28144;49.920;18.730;2022-07-05T06:13:03;13.15;;;8.50;;
42514;SDS011;28144;49.920;18.730;2022-07-05T06:15:30;12.73;;;7.15;;
42514;SDS011;28144;49.920;18.730;2022-07-05T06:17:56;12.02;;;7.05;;
42514;SDS011;28144;49.920;18.730;2022-07-05T06:20:32;12.43;;;6.85;;
42514;SDS011;28144;49.920;18.730;2022-07-05T06:22:59;11.02;;;7.63;;
42514;SDS011;28144;49.920;18.730;2022-07-05T06:25:26;15.38;;;7.68;;
42514;SDS011;28144;49.920;18.730;2022-07-05T06:27:53;19.33;;;8.82;;
42514;SDS011;28144;49.920;18.730;2022-07-05T06:30:20;13.13;;;7.57;;
42514;SDS011;28144;49.920;18.730;2022-07-05T06:32:47;13.77;;;8.63;;
42514;SDS011;28144;49.920;18.730;2022-07-05T06:35:14;12.98;;;8.65;;
42514;SDS011;28144;49.920;18.730;2022-07-05T06:40:09;9.43;;;6.97;;
42514;SDS011;28144;49.920;18.730;2022-07-05T06:42:36;11.68;;;6.60;;
42514;SDS011;28144;49.920;18.730;2022-07-05T06:45:02;13.38;;;6.18;;
42514;SDS011;28144;49.920;18.730;2022-07-05T06:47:28;10.43;;;6.63;;
42514;SDS011;28144;49.920;18.730;2022-07-05T06:49:54;12.10;;;6.07;;
42514;SDS011;28144;49.920;18.730;2022-07-05T06:52:23;14.10;;;8.68;;
42514;SDS011;28144;49.920;18.730;2022-07-05T06:54:48;20.98;;;12.35;;
42514;SDS011;28144;49.920;18.730;2022-07-05T06:57:18;22.47;;;14.50;;
42514;SDS011;28144;49.920;18.730;2022-07-05T06:59:44;19.10;;;12.32;;
42514;SDS011;28144;49.920;18.730;2022-07-05T07:02:10;17.92;;;10.65;;
42514;SDS011;28144;49.920;18.730;2022-07-05T07:04:36;13.70;;;7.10;;
42514;SDS011;28144;49.920;18.730;2022-07-05T07:07:02;11.80;;;6.85;;
42514;SDS011;28144;49.920;18.730;2022-07-05T07:09:27;11.98;;;7.55;;
42514;SDS011;28144;49.920;18.730;2022-07-05T07:11:53;13.57;;;7.20;;
42514;SDS011;28144;49.920;18.730;2022-07-05T07:14:19;14.13;;;7.25;;
42514;SDS011;28144;49.920;18.730;2022-07-05T07:16:44;8.97;;;5.37;;
42514;SDS011;28144;49.920;18.730;2022-07-05T07:19:10;10.82;;;5.95;;
42514;SDS011;28144;49.920;18.730;2022-07-05T07:21:37;8.68;;;4.88;;
42514;SDS011;28144;49.920;18.730;2022-07-05T07:24:03;10.68;;;5.95;;
42514;SDS011;28144;49.920;18.730;2022-07-05T07:26:29;8.57;;;5.20;;
42514;SDS011;28144;49.920;18.730;2022-07-05T07:28:54;8.70;;;5.22;;
42514;SDS011;28144;49.920;18.730;2022-07-05T07:31:20;7.33;;;5.37;;
42514;SDS011;28144;49.920;18.730;2022-07-05T07:33:46;9.27;;;6.63;;
42514;SDS011;28144;49.920;18.730;2022-07-05T07:36:11;10.10;;;7.50;;
42514;SDS011;28144;49.920;18.730;2022-07-05T07:38:38;11.73;;;7.40;;
42514;SDS011;28144;49.920;18.730;2022-07-05T07:41:04;10.27;;;7.53;;
42514;SDS011;28144;49.920;18.730;2022-07-05T07:43:29;12.70;;;9.05;;
42514;SDS011;28144;49.920;18.730;2022-07-05T07:45:55;16.17;;;9.10;;
42514;SDS011;28144;49.920;18.730;2022-07-05T07:48:22;10.95;;;7.45;;
42514;SDS011;28144;49.920;18.730;2022-07-05T07:50:48;12.77;;;6.13;;
42514;SDS011;28144;49.920;18.730;2022-07-05T07:53:13;8.17;;;5.33;;
42514;SDS011;28144;49.920;18.730;2022-07-05T07:55:39;8.60;;;5.32;;
42514;SDS011;28144;49.920;18.730;2022-07-05T07:58:04;8.07;;;4.70;;
42514;SDS011;28144;49.920;18.730;2022-07-05T08:00:31;8.70;;;5.03;;
42514;SDS011;28144;49.920;18.730;2022-07-05T08:02:57;10.80;;;5.32;;
42514;SDS011;28144;49.920;18.730;2022-07-05T08:05:23;8.40;;;4.63;;
42514;SDS011;28144;49.920;18.730;2022-07-05T08:07:49;7.40;;;4.60;;
42514;SDS011;28144;49.920;18.730;2022-07-05T08:10:17;9.65;;;5.28;;
42514;SDS011;28144;49.920;18.730;2022-07-05T08:12:42;9.30;;;5.38;;
42514;SDS011;28144;49.920;18.730;2022-07-05T08:15:08;8.07;;;5.40;;
42514;SDS011;28144;49.920;18.730;2022-07-05T08:17:34;9.48;;;6.03;;
42514;SDS011;28144;49.920;18.730;2022-07-05T08:20:00;6.78;;;5.53;;
42514;SDS011;28144;49.920;18.730;2022-07-05T08:22:44;10.15;;;5.50;;
42514;SDS011;28144;49.920;18.730;2022-07-05T08:25:09;10.17;;;5.87;;
42514;SDS011;28144;49.920;18.730;2022-07-05T08:27:35;11.23;;;6.13;;
42514;SDS011;28144;49.920;18.730;2022-07-05T08:30:01;8.80;;;6.50;;
42514;SDS011;28144;49.920;18.730;2022-07-05T08:32:27;9.73;;;6.05;;
42514;SDS011;28144;49.920;18.730;2022-07-05T08:34:53;9.70;;;6.82;;
42514;SDS011;28144;49.920;18.730;2022-07-05T08:37:19;8.93;;;6.50;;
42514;SDS011;28144;49.920;18.730;2022-07-05T08:39:45;9.65;;;6.45;;
42514;SDS011;28144;49.920;18.730;2022-07-05T08:42:11;9.30;;;6.97;;
42514;SDS011;28144;49.920;18.730;2022-07-05T08:44:43;7.70;;;6.25;;
42514;SDS011;28144;49.920;18.730;2022-07-05T08:47:09;9.98;;;6.15;;
42514;SDS011;28144;49.920;18.730;2022-07-05T08:52:39;7.95;;;6.55;;
42514;SDS011;28144;49.920;18.730;2022-07-05T08:55:05;11.18;;;6.85;;
42514;SDS011;28144;49.920;18.730;2022-07-05T08:57:31;14.00;;;7.53;;
42514;SDS011;28144;49.920;18.730;2022-07-05T08:59:57;14.55;;;7.55;;
42514;SDS011;28144;49.920;18.730;2022-07-05T09:02:23;10.83;;;7.53;;
42514;SDS011;28144;49.920;18.730;2022-07-05T09:04:48;9.90;;;7.50;;
42514;SDS011;28144;49.920;18.730;2022-07-05T09:07:16;11.95;;;7.45;;
42514;SDS011;28144;49.920;18.730;2022-07-05T09:09:42;12.18;;;8.18;;
42514;SDS011;28144;49.920;18.730;2022-07-05T09:12:10;12.05;;;7.63;;
42514;SDS011;28144;49.920;18.730;2022-07-05T09:14:37;9.38;;;7.53;;
42514;SDS011;28144;49.920;18.730;2022-07-05T09:17:02;10.50;;;7.40;;
42514;SDS011;28144;49.920;18.730;2022-07-05T09:19:28;11.95;;;7.43;;
42514;SDS011;28144;49.920;18.730;2022-07-05T09:22:02;8.48;;;7.55;;
42514;SDS011;28144;49.920;18.730;2022-07-05T09:24:31;11.73;;;8.60;;
42514;SDS011;28144;49.920;18.730;2022-07-05T09:27:03;9.98;;;8.00;;
42514;SDS011;28144;49.920;18.730;2022-07-05T09:29:30;13.35;;;8.55;;
42514;SDS011;28144;49.920;18.730;2022-07-05T09:31:56;11.80;;;7.63;;
42514;SDS011;28144;49.920;18.730;2022-07-05T09:34:21;13.98;;;8.38;;
42514;SDS011;28144;49.920;18.730;2022-07-05T09:44:56;10.35;;;8.32;;
42514;SDS011;28144;49.920;18.730;2022-07-05T09:47:28;11.98;;;8.38;;
42514;SDS011;28144;49.920;18.730;2022-07-05T09:49:55;11.57;;;9.35;;
42514;SDS011;28144;49.920;18.730;2022-07-05T09:57:33;9.93;;;8.32;;
42514;SDS011;28144;49.920;18.730;2022-07-05T10:00:07;10.40;;;8.75;;
42514;SDS011;28144;49.920;18.730;2022-07-05T10:02:50;10.32;;;7.93;;
42514;SDS011;28144;49.920;18.730;2022-07-05T10:05:26;10.75;;;6.60;;
42514;SDS011;28144;49.920;18.730;2022-07-05T10:07:54;11.30;;;7.35;;
42514;SDS011;28144;49.920;18.730;2022-07-05T10:12:48;9.43;;;8.02;;
42514;SDS011;28144;49.920;18.730;2022-07-05T10:15:20;12.55;;;7.85;;
42514;SDS011;28144;49.920;18.730;2022-07-05T10:18:08;10.65;;;7.68;;
42514;SDS011;28144;49.920;18.730;2022-07-05T10:20:44;8.68;;;6.63;;
42514;SDS011;28144;49.920;18.730;2022-07-05T10:23:11;7.68;;;6.70;;
42514;SDS011;28144;49.920;18.730;2022-07-05T10:25:37;10.18;;;6.75;;
42514;SDS011;28144;49.920;18.730;2022-07-05T10:28:04;7.43;;;6.10;;
42514;SDS011;28144;49.920;18.730;2022-07-05T10:30:31;7.90;;;6.35;;
42514;SDS011;28144;49.920;18.730;2022-07-05T10:32:57;7.68;;;6.20;;
42514;SDS011;28144;49.920;18.730;2022-07-05T10:35:23;5.95;;;5.15;;
42514;SDS011;28144;49.920;18.730;2022-07-05T10:37:49;10.00;;;5.60;;
42514;SDS011;28144;49.920;18.730;2022-07-05T10:40:15;10.20;;;5.45;;
42514;SDS011;28144;49.920;18.730;2022-07-05T10:42:45;7.15;;;4.88;;
42514;SDS011;28144;49.920;18.730;2022-07-05T10:58:29;7.00;;;5.55;;
42514;SDS011;28144;49.920;18.730;2022-07-05T11:06:25;9.07;;;5.15;;
42514;SDS011;28144;49.920;18.730;2022-07-05T11:11:28;8.52;;;5.55;;
42514;SDS011;28144;49.920;18.730;2022-07-05T11:14:05;7.18;;;5.63;;
42514;SDS011;28144;49.920;18.730;2022-07-05T11:16:48;6.60;;;4.90;;
42514;SDS011;28144;49.920;18.730;2022-07-05T11:19:16;8.65;;;5.63;;
42514;SDS011;28144;49.920;18.730;2022-07-05T11:22:04;5.10;;;4.57;;
42514;SDS011;28144;49.920;18.730;2022-07-05T11:24:34;6.68;;;5.30;;
42514;SDS011;28144;49.920;18.730;2022-07-05T11:27:02;5.20;;;4.70;;
42514;SDS011;28144;49.920;18.730;2022-07-05T11:34:46;5.82;;;4.65;;
42514;SDS011;28144;49.920;18.730;2022-07-05T11:39:45;5.93;;;4.88;;
42514;SDS011;28144;49.920;18.730;2022-07-05T11:42:21;7.30;;;4.63;;
42514;SDS011;28144;49.920;18.730;2022-07-05T11:44:50;4.97;;;4.32;;
42514;SDS011;28144;49.920;18.730;2022-07-05T11:47:16;4.75;;;4.25;;
42514;SDS011;28144;49.920;18.730;2022-07-05T11:49:52;7.30;;;4.85;;
42514;SDS011;28144;49.920;18.730;2022-07-05T11:52:28;7.13;;;5.25;;
42514;SDS011;28144;49.920;18.730;2022-07-05T11:55:13;6.72;;;4.43;;
42514;SDS011;28144;49.920;18.730;2022-07-05T11:57:47;7.55;;;3.83;;
42514;SDS011;28144;49.920;18.730;2022-07-05T12:00:24;4.82;;;3.60;;
42514;SDS011;28144;49.920;18.730;2022-07-05T12:02:51;6.47;;;3.70;;
42514;SDS011;28144;49.920;18.730;2022-07-05T12:05:16;5.37;;;4.17;;
42514;SDS011;28144;49.920;18.730;2022-07-05T12:07:47;4.50;;;3.90;;
42514;SDS011;28144;49.920;18.730;2022-07-05T12:10:14;6.13;;;4.20;;
42514;SDS011;28144;49.920;18.730;2022-07-05T12:13:08;8.07;;;4.03;;
42514;SDS011;28144;49.920;18.730;2022-07-05T12:15:35;5.53;;;3.25;;
42514;SDS011;28144;49.920;18.730;2022-07-05T12:18:02;5.45;;;3.72;;
42514;SDS011;28144;49.920;18.730;2022-07-05T12:20:28;4.75;;;3.70;;
42514;SDS011;28144;49.920;18.730;2022-07-05T12:22:56;4.40;;;3.60;;
42514;SDS011;28144;49.920;18.730;2022-07-05T12:25:24;4.50;;;3.15;;
42514;SDS011;28144;49.920;18.730;2022-07-05T12:27:51;3.42;;;2.95;;
42514;SDS011;28144;49.920;18.730;2022-07-05T12:30:18;3.45;;;3.00;;
42514;SDS011;28144;49.920;18.730;2022-07-05T12:32:54;8.23;;;3.22;;
42514;SDS011;28144;49.920;18.730;2022-07-05T12:37:54;7.43;;;2.40;;
42514;SDS011;28144;49.920;18.730;2022-07-05T12:40:21;3.83;;;1.90;;
42514;SDS011;28144;49.920;18.730;2022-07-05T12:42:47;1.90;;;1.70;;
42514;SDS011;28144;49.920;18.730;2022-07-05T12:45:28;1.90;;;1.60;;
42514;SDS011;28144;49.920;18.730;2022-07-05T12:47:55;1.77;;;1.67;;
42514;SDS011;28144;49.920;18.730;2022-07-05T12:50:25;4.80;;;2.20;;
42514;SDS011;28144;49.920;18.730;2022-07-05T12:53:06;2.47;;;2.28;;
42514;SDS011;28144;49.920;18.730;2022-07-05T12:55:51;2.67;;;2.35;;
42514;SDS011;28144;49.920;18.730;2022-07-05T12:58:52;3.35;;;2.78;;
42514;SDS011;28144;49.920;18.730;2022-07-05T13:01:31;3.75;;;3.35;;
42514;SDS011;28144;49.920;18.730;2022-07-05T13:04:00;3.78;;;2.63;;
42514;SDS011;28144;49.920;18.730;2022-07-05T13:09:08;5.47;;;3.33;;
42514;SDS011;28144;49.920;18.730;2022-07-05T13:11:34;5.93;;;3.30;;
42514;SDS011;28144;49.920;18.730;2022-07-05T13:14:00;6.97;;;3.20;;
42514;SDS011;28144;49.920;18.730;2022-07-05T13:18:52;4.10;;;2.67;;
42514;SDS011;28144;49.920;18.730;2022-07-05T13:21:17;7.30;;;3.70;;
42514;SDS011;28144;49.920;18.730;2022-07-05T13:23:43;6.20;;;3.05;;
42514;SDS011;28144;49.920;18.730;2022-07-05T13:26:09;5.23;;;3.20;;
42514;SDS011;28144;49.920;18.730;2022-07-05T13:28:34;4.17;;;2.90;;
42514;SDS011;28144;49.920;18.730;2022-07-05T13:31:00;3.08;;;2.28;;
42514;SDS011;28144;49.920;18.730;2022-07-05T13:33:26;4.33;;;2.83;;
42514;SDS011;28144;49.920;18.730;2022-07-05T13:35:51;6.37;;;2.90;;
42514;SDS011;28144;49.920;18.730;2022-07-05T13:38:17;5.60;;;2.80;;
42514;SDS011;28144;49.920;18.730;2022-07-05T13:40:43;4.80;;;2.90;;
42514;SDS011;28144;49.920;18.730;2022-07-05T13:43:08;4.70;;;2.83;;
42514;SDS011;28144;49.920;18.730;2022-07-05T13:45:34;5.57;;;2.88;;
42514;SDS011;28144;49.920;18.730;2022-07-05T13:48:00;3.47;;;2.92;;
42514;SDS011;28144;49.920;18.730;2022-07-05T13:50:26;3.28;;;2.83;;
42514;SDS011;28144;49.920;18.730;2022-07-05T13:53:01;5.43;;;2.92;;
42514;SDS011;28144;49.920;18.730;2022-07-05T13:55:27;4.18;;;2.88;;
42514;SDS011;28144;49.920;18.730;2022-07-05T13:57:53;5.95;;;2.30;;
42514;SDS011;28144;49.920;18.730;2022-07-05T14:00:19;2.35;;;1.85;;
42514;SDS011;28144;49.920;18.730;2022-07-05T14:02:46;2.95;;;2.58;;
42514;SDS011;28144;49.920;18.730;2022-07-05T14:05:12;4.35;;;2.58;;
42514;SDS011;28144;49.920;18.730;2022-07-05T14:07:37;4.25;;;2.97;;
42514;SDS011;28144;49.920;18.730;2022-07-05T14:10:03;11.90;;;3.63;;
42514;SDS011;28144;49.920;18.730;2022-07-05T14:12:29;6.15;;;3.13;;
42514;SDS011;28144;49.920;18.730;2022-07-05T14:14:55;5.25;;;3.13;;
42514;SDS011;28144;49.920;18.730;2022-07-05T14:17:21;5.10;;;2.93;;
42514;SDS011;28144;49.920;18.730;2022-07-05T14:19:47;2.70;;;2.50;;
42514;SDS011;28144;49.920;18.730;2022-07-05T14:22:13;7.20;;;2.70;;
42514;SDS011;28144;49.920;18.730;2022-07-05T14:24:39;3.10;;;2.60;;
42514;SDS011;28144;49.920;18.730;2022-07-05T14:27:05;5.70;;;2.90;;
42514;SDS011;28144;49.920;18.730;2022-07-05T14:29:33;3.95;;;3.05;;
42514;SDS011;28144;49.920;18.730;2022-07-05T14:31:59;5.07;;;3.20;;
42514;SDS011;28144;49.920;18.730;2022-07-05T14:34:25;4.10;;;3.47;;
42514;SDS011;28144;49.920;18.730;2022-07-05T14:36:53;3.40;;;3.08;;
42514;SDS011;28144;49.920;18.730;2022-07-05T14:39:18;3.53;;;2.83;;
42514;SDS011;28144;49.920;18.730;2022-07-05T14:41:45;9.40;;;3.70;;
42514;SDS011;28144;49.920;18.730;2022-07-05T14:44:12;6.53;;;3.72;;
42514;SDS011;28144;49.920;18.730;2022-07-05T14:46:38;5.10;;;4.25;;
42514;SDS011;28144;49.920;18.730;2022-07-05T14:49:04;5.35;;;3.97;;
42514;SDS011;28144;49.920;18.730;2022-07-05T14:51:30;6.47;;;4.43;;
42514;SDS011;28144;49.920;18.730;2022-07-05T14:53:56;5.17;;;3.83;;
42514;SDS011;28144;49.920;18.730;2022-07-05T14:56:21;6.47;;;3.97;;
42514;SDS011;28144;49.920;18.730;2022-07-05T14:58:47;7.80;;;4.88;;
42514;SDS011;28144;49.920;18.730;2022-07-05T15:01:14;4.75;;;3.95;;
42514;SDS011;28144;49.920;18.730;2022-07-05T15:03:40;5.25;;;3.95;;
42514;SDS011;28144;49.920;18.730;2022-07-05T15:06:06;6.22;;;5.35;;
42514;SDS011;28144;49.920;18.730;2022-07-05T15:08:32;7.28;;;5.03;;
42514;SDS011;28144;49.920;18.730;2022-07-05T15:10:57;6.97;;;5.17;;
42514;SDS011;28144;49.920;18.730;2022-07-05T15:13:24;9.23;;;5.88;;
42514;SDS011;28144;49.920;18.730;2022-07-05T15:15:53;8.55;;;6.25;;
42514;SDS011;28144;49.920;18.730;2022-07-05T15:18:19;9.70;;;7.30;;
42514;SDS011;28144;49.920;18.730;2022-07-05T15:20:45;9.77;;;7.38;;
42514;SDS011;28144;49.920;18.730;2022-07-05T15:23:11;10.37;;;7.73;;
42514;SDS011;28144;49.920;18.730;2022-07-05T15:25:36;9.77;;;7.53;;
42514;SDS011;28144;49.920;18.730;2022-07-05T15:28:02;14.13;;;6.82;;
42514;SDS011;28144;49.920;18.730;2022-07-05T15:30:33;11.70;;;8.55;;
42514;SDS011;28144;49.920;18.730;2022-07-05T15:32:58;10.38;;;6.60;;
42514;SDS011;28144;49.920;18.730;2022-07-05T15:35:24;10.07;;;6.97;;
42514;SDS011;28144;49.920;18.730;2022-07-05T15:37:50;10.03;;;8.63;;
42514;SDS011;28144;49.920;18.730;2022-07-05T15:40:15;9.50;;;7.57;;